sensor_id;sensor_type;location;lat;lon;timestamp;P1;durP1;ratioP1;P2;durP2;ratioP2
13085;SDS011;6609;49.882;8.664;2023-10-13T00:01:46;13.27;;;5.67;;
13085;SDS011;6609;49.882;8.664;2023-10-13T00:04:13;9.17;;;5.23;;
13085;SDS011;6609;49.882;8.664;2023-10-13T00:06:40;12.30;;;4.73;;
13085;SDS011;6609;49.882;8.664;2023-10-13T00:09:09;10.37;;;5.57;;
13085;SDS011;6609;49.882;8.664;2023-10-13T00:11:40;9.87;;;4.87;;
13085;SDS011;6609;49.882;8.664;2023-10-13T00:14:10;11.27;;;5.67;;
13085;SDS011;6609;49.882;8.664;2023-10-13T00:16:40;10.50;;;5.03;;
13085;SDS011;6609;49.882;8.664;2023-10-13T00:19:08;12.73;;;5.93;;
13085;SDS011;6609;49.882;8.664;2023-10-13T00:21:38;13.37;;;5.87;;
13085;SDS011;6609;49.882;8.664;2023-10-13T00:24:07;10.43;;;5.50;;
13085;SDS011;6609;49.882;8.664;2023-10-13T00:26:39;13.73;;;5.97;;
13085;SDS011;6609;49.882;8.664;2023-10-13T00:29:08;14.73;;;5.80;;
13085;SDS011;6609;49.882;8.664;2023-10-13T00:31:42;11.03;;;5.80;;
13085;SDS011;6609;49.882;8.664;2023-10-13T00:34:13;12.23;;;5.80;;
13085;SDS011;6609;49.882;8.664;2023-10-13T00:36:44;14.90;;;5.33;;
13085;SDS011;6609;49.882;8.664;2023-10-13T00:39:13;8.10;;;5.43;;
13085;SDS011;6609;49.882;8.664;2023-10-13T00:41:41;16.20;;;5.00;;
13085;SDS011;6609;49.882;8.664;2023-10-13T00:44:17;9.93;;;4.93;;
13085;SDS011;6609;49.882;8.664;2023-10-13T00:46:52;9.63;;;5.20;;
13085;SDS011;6609;49.882;8.664;2023-10-13T00:49:20;8.77;;;4.67;;
13085;SDS011;6609;49.882;8.664;2023-10-13T00:51:47;13.47;;;5.93;;
13085;SDS011;6609;49.882;8.664;2023-10-13T00:54:15;10.90;;;5.60;;
13085;SDS011;6609;49.882;8.664;2023-10-13T00:56:43;12.23;;;5.90;;
13085;SDS011;6609;49.882;8.664;2023-10-13T00:59:14;11.43;;;5.40;;
13085;SDS011;6609;49.882;8.664;2023-10-13T01:01:41;11.87;;;5.50;;
13085;SDS011;6609;49.882;8.664;2023-10-13T01:04:12;10.43;;;4.80;;
13085;SDS011;6609;49.882;8.664;2023-10-13T01:06:42;16.60;;;5.30;;
13085;SDS011;6609;49.882;8.664;2023-10-13T01:09:09;15.30;;;5.87;;
13085;SDS011;6609;49.882;8.664;2023-10-13T01:11:42;12.00;;;5.63;;
13085;SDS011;6609;49.882;8.664;2023-10-13T01:14:08;12.97;;;5.40;;
13085;SDS011;6609;49.882;8.664;2023-10-13T01:16:36;12.97;;;5.40;;
13085;SDS011;6609;49.882;8.664;2023-10-13T01:19:05;10.37;;;5.30;;
13085;SDS011;6609;49.882;8.664;2023-10-13T01:21:33;11.80;;;5.30;;
13085;SDS011;6609;49.882;8.664;2023-10-13T01:24:01;11.87;;;5.13;;
13085;SDS011;6609;49.882;8.664;2023-10-13T01:26:32;14.63;;;5.50;;
13085;SDS011;6609;49.882;8.664;2023-10-13T01:29:03;11.47;;;6.13;;
13085;SDS011;6609;49.882;8.664;2023-10-13T01:31:37;11.43;;;4.97;;
13085;SDS011;6609;49.882;8.664;2023-10-13T01:34:02;10.53;;;5.50;;
13085;SDS011;6609;49.882;8.664;2023-10-13T01:36:29;12.37;;;5.20;;
13085;SDS011;6609;49.882;8.664;2023-10-13T01:39:02;12.50;;;5.07;;
13085;SDS011;6609;49.882;8.664;2023-10-13T01:41:28;10.60;;;4.80;;
13085;SDS011;6609;49.882;8.664;2023-10-13T01:43:56;13.43;;;5.23;;
13085;SDS011;6609;49.882;8.664;2023-10-13T01:46:22;10.97;;;4.97;;
13085;SDS011;6609;49.882;8.664;2023-10-13T01:48:49;10.67;;;5.57;;
13085;SDS011;6609;49.882;8.664;2023-10-13T01:51:19;9.50;;;5.20;;
13085;SDS011;6609;49.882;8.664;2023-10-13T01:53:48;11.20;;;5.47;;
13085;SDS011;6609;49.882;8.664;2023-10-13T01:56:22;12.00;;;5.47;;
13085;SDS011;6609;49.882;8.664;2023-10-13T01:58:48;10.00;;;5.67;;
13085;SDS011;6609;49.882;8.664;2023-10-13T02:01:15;12.30;;;5.27;;
13085;SDS011;6609;49.882;8.664;2023-10-13T02:03:51;11.80;;;5.73;;
13085;SDS011;6609;49.882;8.664;2023-10-13T02:06:26;15.07;;;5.20;;
13085;SDS011;6609;49.882;8.664;2023-10-13T02:08:57;9.13;;;5.37;;
13085;SDS011;6609;49.882;8.664;2023-10-13T02:11:30;9.23;;;5.40;;
13085;SDS011;6609;49.882;8.664;2023-10-13T02:13:56;11.90;;;5.40;;
13085;SDS011;6609;49.882;8.664;2023-10-13T02:16:25;12.20;;;5.67;;
13085;SDS011;6609;49.882;8.664;2023-10-13T02:18:51;11.83;;;5.87;;
13085;SDS011;6609;49.882;8.664;2023-10-13T02:21:17;11.67;;;6.20;;
13085;SDS011;6609;49.882;8.664;2023-10-13T02:23:44;10.30;;;6.27;;
13085;SDS011;6609;49.882;8.664;2023-10-13T02:26:24;10.20;;;5.73;;
13085;SDS011;6609;49.882;8.664;2023-10-13T02:28:56;10.80;;;5.57;;
13085;SDS011;6609;49.882;8.664;2023-10-13T02:31:25;14.77;;;6.13;;
13085;SDS011;6609;49.882;8.664;2023-10-13T02:33:52;10.30;;;5.47;;
13085;SDS011;6609;49.882;8.664;2023-10-13T02:36:19;10.77;;;5.63;;
13085;SDS011;6609;49.882;8.664;2023-10-13T02:38:47;9.93;;;5.57;;
13085;SDS011;6609;49.882;8.664;2023-10-13T02:41:16;13.40;;;5.70;;
13085;SDS011;6609;49.882;8.664;2023-10-13T02:43:50;11.90;;;6.43;;
13085;SDS011;6609;49.882;8.664;2023-10-13T02:46:18;15.73;;;6.27;;
13085;SDS011;6609;49.882;8.664;2023-10-13T02:48:47;12.17;;;5.47;;
13085;SDS011;6609;49.882;8.664;2023-10-13T02:51:18;17.00;;;6.00;;
13085;SDS011;6609;49.882;8.664;2023-10-13T02:53:47;14.93;;;5.70;;
13085;SDS011;6609;49.882;8.664;2023-10-13T02:56:14;13.50;;;6.27;;
13085;SDS011;6609;49.882;8.664;2023-10-13T02:58:46;17.00;;;6.43;;
13085;SDS011;6609;49.882;8.664;2023-10-13T03:01:20;10.60;;;5.83;;
13085;SDS011;6609;49.882;8.664;2023-10-13T03:03:48;11.27;;;5.57;;
13085;SDS011;6609;49.882;8.664;2023-10-13T03:06:19;12.47;;;5.80;;
13085;SDS011;6609;49.882;8.664;2023-10-13T03:08:49;9.93;;;5.47;;
13085;SDS011;6609;49.882;8.664;2023-10-13T03:11:16;9.67;;;5.57;;
13085;SDS011;6609;49.882;8.664;2023-10-13T03:13:47;11.30;;;5.80;;
13085;SDS011;6609;49.882;8.664;2023-10-13T03:16:17;12.47;;;5.70;;
13085;SDS011;6609;49.882;8.664;2023-10-13T03:18:45;13.10;;;5.40;;
13085;SDS011;6609;49.882;8.664;2023-10-13T03:21:19;10.07;;;5.60;;
13085;SDS011;6609;49.882;8.664;2023-10-13T03:23:56;15.10;;;6.00;;
13085;SDS011;6609;49.882;8.664;2023-10-13T03:26:30;9.87;;;6.40;;
13085;SDS011;6609;49.882;8.664;2023-10-13T03:29:00;12.63;;;5.80;;
13085;SDS011;6609;49.882;8.664;2023-10-13T03:31:29;11.47;;;4.97;;
13085;SDS011;6609;49.882;8.664;2023-10-13T03:34:02;12.30;;;5.87;;
13085;SDS011;6609;49.882;8.664;2023-10-13T03:36:29;11.07;;;5.87;;
13085;SDS011;6609;49.882;8.664;2023-10-13T03:39:13;15.63;;;7.37;;
13085;SDS011;6609;49.882;8.664;2023-10-13T03:41:40;13.40;;;5.40;;
13085;SDS011;6609;49.882;8.664;2023-10-13T03:44:10;14.97;;;5.97;;
13085;SDS011;6609;49.882;8.664;2023-10-13T03:46:44;12.17;;;5.80;;
13085;SDS011;6609;49.882;8.664;2023-10-13T03:49:13;13.97;;;5.90;;
13085;SDS011;6609;49.882;8.664;2023-10-13T03:51:46;11.30;;;5.17;;
13085;SDS011;6609;49.882;8.664;2023-10-13T03:54:13;12.57;;;5.30;;
13085;SDS011;6609;49.882;8.664;2023-10-13T03:56:41;12.47;;;5.83;;
13085;SDS011;6609;49.882;8.664;2023-10-13T03:59:10;11.97;;;5.57;;
13085;SDS011;6609;49.882;8.664;2023-10-13T04:01:45;13.07;;;5.37;;
13085;SDS011;6609;49.882;8.664;2023-10-13T04:04:15;10.27;;;5.40;;
13085;SDS011;6609;49.882;8.664;2023-10-13T04:06:58;12.13;;;5.60;;
13085;SDS011;6609;49.882;8.664;2023-10-13T04:09:45;14.37;;;5.77;;
13085;SDS011;6609;49.882;8.664;2023-10-13T04:12:32;11.40;;;5.20;;
13085;SDS011;6609;49.882;8.664;2023-10-13T04:15:16;10.17;;;5.20;;
13085;SDS011;6609;49.882;8.664;2023-10-13T04:17:50;14.77;;;5.87;;
13085;SDS011;6609;49.882;8.664;2023-10-13T04:20:17;16.60;;;5.87;;
13085;SDS011;6609;49.882;8.664;2023-10-13T04:22:58;11.87;;;5.20;;
13085;SDS011;6609;49.882;8.664;2023-10-13T04:25:39;12.17;;;5.07;;
13085;SDS011;6609;49.882;8.664;2023-10-13T04:28:30;13.93;;;5.83;;
13085;SDS011;6609;49.882;8.664;2023-10-13T04:31:16;12.53;;;5.33;;
13085;SDS011;6609;49.882;8.664;2023-10-13T04:34:12;13.63;;;5.73;;
13085;SDS011;6609;49.882;8.664;2023-10-13T04:36:52;13.90;;;5.83;;
13085;SDS011;6609;49.882;8.664;2023-10-13T04:39:36;7.87;;;5.00;;
13085;SDS011;6609;49.882;8.664;2023-10-13T04:42:04;11.00;;;5.40;;
13085;SDS011;6609;49.882;8.664;2023-10-13T04:44:38;13.43;;;5.23;;
13085;SDS011;6609;49.882;8.664;2023-10-13T04:47:13;10.53;;;5.00;;
13085;SDS011;6609;49.882;8.664;2023-10-13T04:49:47;10.43;;;4.67;;
13085;SDS011;6609;49.882;8.664;2023-10-13T04:52:17;15.03;;;5.13;;
13085;SDS011;6609;49.882;8.664;2023-10-13T04:55:02;12.97;;;4.97;;
13085;SDS011;6609;49.882;8.664;2023-10-13T04:57:42;12.37;;;4.93;;
13085;SDS011;6609;49.882;8.664;2023-10-13T05:00:12;12.07;;;5.10;;
13085;SDS011;6609;49.882;8.664;2023-10-13T05:02:59;12.70;;;5.07;;
13085;SDS011;6609;49.882;8.664;2023-10-13T05:05:50;10.40;;;5.23;;
13085;SDS011;6609;49.882;8.664;2023-10-13T05:08:35;9.57;;;6.13;;
13085;SDS011;6609;49.882;8.664;2023-10-13T05:11:19;13.60;;;4.83;;
13085;SDS011;6609;49.882;8.664;2023-10-13T05:14:04;12.90;;;4.93;;
13085;SDS011;6609;49.882;8.664;2023-10-13T05:16:49;8.50;;;4.07;;
13085;SDS011;6609;49.882;8.664;2023-10-13T05:19:33;9.63;;;4.47;;
13085;SDS011;6609;49.882;8.664;2023-10-13T05:22:20;15.27;;;4.87;;
13085;SDS011;6609;49.882;8.664;2023-10-13T05:25:04;8.80;;;5.30;;
13085;SDS011;6609;49.882;8.664;2023-10-13T05:27:49;12.03;;;5.43;;
13085;SDS011;6609;49.882;8.664;2023-10-13T05:30:34;10.93;;;4.37;;
13085;SDS011;6609;49.882;8.664;2023-10-13T05:33:19;8.87;;;4.80;;
13085;SDS011;6609;49.882;8.664;2023-10-13T05:36:08;9.50;;;4.80;;
13085;SDS011;6609;49.882;8.664;2023-10-13T05:38:54;14.23;;;4.97;;
13085;SDS011;6609;49.882;8.664;2023-10-13T05:41:39;8.10;;;4.10;;
13085;SDS011;6609;49.882;8.664;2023-10-13T05:44:23;10.20;;;5.50;;
13085;SDS011;6609;49.882;8.664;2023-10-13T05:47:02;8.83;;;4.17;;
13085;SDS011;6609;49.882;8.664;2023-10-13T05:49:47;13.53;;;4.93;;
13085;SDS011;6609;49.882;8.664;2023-10-13T05:52:18;13.17;;;5.03;;
13085;SDS011;6609;49.882;8.664;2023-10-13T05:54:46;8.67;;;4.07;;
13085;SDS011;6609;49.882;8.664;2023-10-13T05:57:31;11.20;;;4.83;;
13085;SDS011;6609;49.882;8.664;2023-10-13T06:00:15;9.50;;;4.87;;
13085;SDS011;6609;49.882;8.664;2023-10-13T06:03:00;13.93;;;5.00;;
13085;SDS011;6609;49.882;8.664;2023-10-13T06:05:45;10.90;;;4.43;;
13085;SDS011;6609;49.882;8.664;2023-10-13T06:08:30;11.63;;;5.97;;
13085;SDS011;6609;49.882;8.664;2023-10-13T06:11:15;9.83;;;4.27;;
13085;SDS011;6609;49.882;8.664;2023-10-13T06:14:00;12.53;;;4.77;;
13085;SDS011;6609;49.882;8.664;2023-10-13T06:16:45;12.03;;;5.03;;
13085;SDS011;6609;49.882;8.664;2023-10-13T06:19:29;10.93;;;4.60;;
13085;SDS011;6609;49.882;8.664;2023-10-13T06:22:14;9.57;;;4.63;;
13085;SDS011;6609;49.882;8.664;2023-10-13T06:24:59;13.27;;;4.87;;
13085;SDS011;6609;49.882;8.664;2023-10-13T06:27:45;11.83;;;4.07;;
13085;SDS011;6609;49.882;8.664;2023-10-13T06:30:29;10.97;;;4.10;;
13085;SDS011;6609;49.882;8.664;2023-10-13T06:32:58;10.50;;;4.37;;
13085;SDS011;6609;49.882;8.664;2023-10-13T06:35:26;14.47;;;4.70;;
13085;SDS011;6609;49.882;8.664;2023-10-13T06:37:54;15.43;;;4.67;;
13085;SDS011;6609;49.882;8.664;2023-10-13T06:40:25;9.93;;;4.50;;
13085;SDS011;6609;49.882;8.664;2023-10-13T06:43:00;10.57;;;4.40;;
13085;SDS011;6609;49.882;8.664;2023-10-13T06:45:43;14.03;;;4.37;;
13085;SDS011;6609;49.882;8.664;2023-10-13T06:48:15;10.60;;;3.97;;
13085;SDS011;6609;49.882;8.664;2023-10-13T06:50:47;10.17;;;4.13;;
13085;SDS011;6609;49.882;8.664;2023-10-13T06:53:14;13.77;;;4.77;;
13085;SDS011;6609;49.882;8.664;2023-10-13T06:55:41;14.83;;;4.27;;
13085;SDS011;6609;49.882;8.664;2023-10-13T06:58:13;12.23;;;4.57;;
13085;SDS011;6609;49.882;8.664;2023-10-13T07:00:42;15.83;;;4.70;;
13085;SDS011;6609;49.882;8.664;2023-10-13T07:03:19;8.87;;;4.27;;
13085;SDS011;6609;49.882;8.664;2023-10-13T07:05:46;13.60;;;4.17;;
13085;SDS011;6609;49.882;8.664;2023-10-13T07:08:14;9.30;;;4.23;;
13085;SDS011;6609;49.882;8.664;2023-10-13T07:10:46;7.60;;;4.63;;
13085;SDS011;6609;49.882;8.664;2023-10-13T07:13:18;14.77;;;5.13;;
13085;SDS011;6609;49.882;8.664;2023-10-13T07:15:45;8.60;;;4.10;;
13085;SDS011;6609;49.882;8.664;2023-10-13T07:18:12;11.10;;;4.77;;
13085;SDS011;6609;49.882;8.664;2023-10-13T07:20:40;11.77;;;4.30;;
13085;SDS011;6609;49.882;8.664;2023-10-13T07:23:11;12.90;;;4.17;;
13085;SDS011;6609;49.882;8.664;2023-10-13T07:25:43;10.63;;;4.10;;
13085;SDS011;6609;49.882;8.664;2023-10-13T07:28:18;9.67;;;3.90;;
13085;SDS011;6609;49.882;8.664;2023-10-13T07:30:45;16.70;;;4.50;;
13085;SDS011;6609;49.882;8.664;2023-10-13T07:33:34;9.77;;;3.80;;
13085;SDS011;6609;49.882;8.664;2023-10-13T07:36:02;8.43;;;3.40;;
13085;SDS011;6609;49.882;8.664;2023-10-13T07:38:36;10.30;;;4.20;;
13085;SDS011;6609;49.882;8.664;2023-10-13T07:41:03;10.97;;;4.60;;
13085;SDS011;6609;49.882;8.664;2023-10-13T07:43:35;7.03;;;3.60;;
13085;SDS011;6609;49.882;8.664;2023-10-13T07:46:02;10.27;;;4.63;;
13085;SDS011;6609;49.882;8.664;2023-10-13T07:48:35;9.87;;;4.17;;
13085;SDS011;6609;49.882;8.664;2023-10-13T07:51:02;10.77;;;3.97;;
13085;SDS011;6609;49.882;8.664;2023-10-13T07:53:30;9.27;;;4.07;;
13085;SDS011;6609;49.882;8.664;2023-10-13T07:56:00;10.63;;;3.87;;
13085;SDS011;6609;49.882;8.664;2023-10-13T07:58:30;12.00;;;4.20;;
13085;SDS011;6609;49.882;8.664;2023-10-13T08:00:59;7.73;;;4.40;;
13085;SDS011;6609;49.882;8.664;2023-10-13T08:03:33;7.77;;;3.60;;
13085;SDS011;6609;49.882;8.664;2023-10-13T08:06:16;10.30;;;4.43;;
13085;SDS011;6609;49.882;8.664;2023-10-13T08:08:51;10.53;;;3.97;;
13085;SDS011;6609;49.882;8.664;2023-10-13T08:11:20;6.47;;;3.77;;
13085;SDS011;6609;49.882;8.664;2023-10-13T08:13:59;6.27;;;3.70;;
13085;SDS011;6609;49.882;8.664;2023-10-13T08:16:37;9.90;;;3.80;;
13085;SDS011;6609;49.882;8.664;2023-10-13T08:19:18;6.57;;;3.70;;
13085;SDS011;6609;49.882;8.664;2023-10-13T08:21:52;9.77;;;4.00;;
13085;SDS011;6609;49.882;8.664;2023-10-13T08:24:22;9.67;;;3.80;;
13085;SDS011;6609;49.882;8.664;2023-10-13T08:26:54;10.33;;;4.17;;
13085;SDS011;6609;49.882;8.664;2023-10-13T08:29:22;7.27;;;4.27;;
13085;SDS011;6609;49.882;8.664;2023-10-13T08:32:09;8.47;;;3.93;;
13085;SDS011;6609;49.882;8.664;2023-10-13T08:35:00;10.70;;;4.20;;
13085;SDS011;6609;49.882;8.664;2023-10-13T08:37:35;8.80;;;3.97;;
13085;SDS011;6609;49.882;8.664;2023-10-13T08:40:26;7.33;;;4.23;;
13085;SDS011;6609;49.882;8.664;2023-10-13T08:43:11;7.23;;;3.70;;
13085;SDS011;6609;49.882;8.664;2023-10-13T08:45:39;9.30;;;4.03;;
13085;SDS011;6609;49.882;8.664;2023-10-13T08:48:20;7.20;;;3.70;;
13085;SDS011;6609;49.882;8.664;2023-10-13T08:50:56;5.37;;;3.53;;
13085;SDS011;6609;49.882;8.664;2023-10-13T08:53:29;10.47;;;3.97;;
13085;SDS011;6609;49.882;8.664;2023-10-13T08:55:58;7.57;;;3.97;;
13085;SDS011;6609;49.882;8.664;2023-10-13T08:58:34;6.90;;;3.87;;
13085;SDS011;6609;49.882;8.664;2023-10-13T09:01:19;12.77;;;4.30;;
13085;SDS011;6609;49.882;8.664;2023-10-13T09:04:04;7.80;;;3.93;;
13085;SDS011;6609;49.882;8.664;2023-10-13T09:06:47;9.90;;;3.87;;
13085;SDS011;6609;49.882;8.664;2023-10-13T09:09:28;7.67;;;4.30;;
13085;SDS011;6609;49.882;8.664;2023-10-13T09:11:59;6.10;;;3.80;;
13085;SDS011;6609;49.882;8.664;2023-10-13T09:14:35;7.77;;;4.20;;
13085;SDS011;6609;49.882;8.664;2023-10-13T09:17:04;6.70;;;3.80;;
13085;SDS011;6609;49.882;8.664;2023-10-13T09:19:45;6.57;;;4.00;;
13085;SDS011;6609;49.882;8.664;2023-10-13T09:22:21;7.67;;;3.80;;
13085;SDS011;6609;49.882;8.664;2023-10-13T09:25:01;6.13;;;3.40;;
13085;SDS011;6609;49.882;8.664;2023-10-13T09:27:30;7.70;;;3.70;;
13085;SDS011;6609;49.882;8.664;2023-10-13T09:29:58;7.43;;;4.00;;
13085;SDS011;6609;49.882;8.664;2023-10-13T09:32:43;10.23;;;3.93;;
13085;SDS011;6609;49.882;8.664;2023-10-13T09:35:18;7.17;;;4.60;;
13085;SDS011;6609;49.882;8.664;2023-10-13T09:37:48;9.93;;;4.07;;
13085;SDS011;6609;49.882;8.664;2023-10-13T09:40:16;13.57;;;4.47;;
13085;SDS011;6609;49.882;8.664;2023-10-13T09:42:58;12.47;;;4.40;;
13085;SDS011;6609;49.882;8.664;2023-10-13T09:45:30;6.30;;;3.63;;
13085;SDS011;6609;49.882;8.664;2023-10-13T09:48:01;8.63;;;3.60;;
13085;SDS011;6609;49.882;8.664;2023-10-13T09:50:35;8.43;;;3.70;;
13085;SDS011;6609;49.882;8.664;2023-10-13T09:53:05;6.80;;;4.03;;
13085;SDS011;6609;49.882;8.664;2023-10-13T09:55:35;10.33;;;3.43;;
13085;SDS011;6609;49.882;8.664;2023-10-13T09:58:06;7.57;;;3.60;;
13085;SDS011;6609;49.882;8.664;2023-10-13T10:00:40;8.77;;;3.87;;
13085;SDS011;6609;49.882;8.664;2023-10-13T10:03:13;8.03;;;3.67;;
13085;SDS011;6609;49.882;8.664;2023-10-13T10:06:00;6.53;;;4.13;;
13085;SDS011;6609;49.882;8.664;2023-10-13T10:08:31;8.53;;;4.70;;
13085;SDS011;6609;49.882;8.664;2023-10-13T10:11:19;9.47;;;4.37;;
13085;SDS011;6609;49.882;8.664;2023-10-13T10:14:04;8.63;;;4.67;;
13085;SDS011;6609;49.882;8.664;2023-10-13T10:16:39;8.33;;;4.27;;
13085;SDS011;6609;49.882;8.664;2023-10-13T10:19:14;7.33;;;4.13;;
13085;SDS011;6609;49.882;8.664;2023-10-13T10:21:42;10.63;;;4.20;;
13085;SDS011;6609;49.882;8.664;2023-10-13T10:24:15;8.40;;;4.27;;
13085;SDS011;6609;49.882;8.664;2023-10-13T10:26:55;7.77;;;3.80;;
13085;SDS011;6609;49.882;8.664;2023-10-13T10:29:22;9.17;;;3.90;;
13085;SDS011;6609;49.882;8.664;2023-10-13T10:31:49;6.13;;;3.57;;
13085;SDS011;6609;49.882;8.664;2023-10-13T10:34:16;8.83;;;3.67;;
13085;SDS011;6609;49.882;8.664;2023-10-13T10:36:47;8.70;;;3.77;;
13085;SDS011;6609;49.882;8.664;2023-10-13T10:39:19;9.30;;;3.73;;
13085;SDS011;6609;49.882;8.664;2023-10-13T10:42:07;7.30;;;4.50;;
13085;SDS011;6609;49.882;8.664;2023-10-13T10:44:40;8.10;;;3.90;;
13085;SDS011;6609;49.882;8.664;2023-10-13T10:47:09;6.67;;;4.63;;
13085;SDS011;6609;49.882;8.664;2023-10-13T10:49:37;5.97;;;3.67;;
13085;SDS011;6609;49.882;8.664;2023-10-13T10:52:05;5.80;;;3.67;;
13085;SDS011;6609;49.882;8.664;2023-10-13T10:54:43;7.43;;;3.63;;
13085;SDS011;6609;49.882;8.664;2023-10-13T10:57:16;8.30;;;4.17;;
13085;SDS011;6609;49.882;8.664;2023-10-13T10:59:44;10.40;;;3.47;;
13085;SDS011;6609;49.882;8.664;2023-10-13T11:02:11;7.53;;;3.57;;
13085;SDS011;6609;49.882;8.664;2023-10-13T11:04:43;15.87;;;4.87;;
13085;SDS011;6609;49.882;8.664;2023-10-13T11:07:21;7.80;;;3.57;;
13085;SDS011;6609;49.882;8.664;2023-10-13T11:09:49;8.90;;;3.23;;
13085;SDS011;6609;49.882;8.664;2023-10-13T11:12:22;9.63;;;4.17;;
13085;SDS011;6609;49.882;8.664;2023-10-13T11:15:01;7.17;;;3.90;;
13085;SDS011;6609;49.882;8.664;2023-10-13T11:17:30;11.97;;;3.57;;
13085;SDS011;6609;49.882;8.664;2023-10-13T11:20:08;9.57;;;3.90;;
13085;SDS011;6609;49.882;8.664;2023-10-13T11:22:46;6.23;;;3.57;;
13085;SDS011;6609;49.882;8.664;2023-10-13T11:25:21;8.93;;;3.63;;
13085;SDS011;6609;49.882;8.664;2023-10-13T11:27:54;6.07;;;4.10;;
13085;SDS011;6609;49.882;8.664;2023-10-13T11:30:23;6.33;;;3.97;;
13085;SDS011;6609;49.882;8.664;2023-10-13T11:33:02;8.43;;;4.20;;
13085;SDS011;6609;49.882;8.664;2023-10-13T11:35:31;7.17;;;4.10;;
13085;SDS011;6609;49.882;8.664;2023-10-13T11:38:15;10.00;;;3.57;;
13085;SDS011;6609;49.882;8.664;2023-10-13T11:40:50;7.53;;;3.87;;
13085;SDS011;6609;49.882;8.664;2023-10-13T11:43:33;8.43;;;4.27;;
13085;SDS011;6609;49.882;8.664;2023-10-13T11:46:13;8.87;;;4.20;;
13085;SDS011;6609;49.882;8.664;2023-10-13T11:48:41;4.77;;;3.60;;
13085;SDS011;6609;49.882;8.664;2023-10-13T11:51:08;5.00;;;3.43;;
13085;SDS011;6609;49.882;8.664;2023-10-13T11:53:43;7.93;;;3.93;;
13085;SDS011;6609;49.882;8.664;2023-10-13T11:56:13;13.50;;;4.30;;
13085;SDS011;6609;49.882;8.664;2023-10-13T11:58:42;6.93;;;3.83;;
13085;SDS011;6609;49.882;8.664;2023-10-13T12:01:11;6.17;;;3.73;;
13085;SDS011;6609;49.882;8.664;2023-10-13T12:03:47;7.60;;;4.17;;
13085;SDS011;6609;49.882;8.664;2023-10-13T12:06:32;9.17;;;3.67;;
13085;SDS011;6609;49.882;8.664;2023-10-13T12:09:13;9.03;;;3.80;;
13085;SDS011;6609;49.882;8.664;2023-10-13T12:12:05;9.10;;;3.63;;
13085;SDS011;6609;49.882;8.664;2023-10-13T12:14:34;7.20;;;3.37;;
13085;SDS011;6609;49.882;8.664;2023-10-13T12:17:02;8.27;;;3.70;;
13085;SDS011;6609;49.882;8.664;2023-10-13T12:19:35;9.27;;;4.33;;
13085;SDS011;6609;49.882;8.664;2023-10-13T12:22:04;9.43;;;3.83;;
13085;SDS011;6609;49.882;8.664;2023-10-13T12:24:35;7.27;;;3.70;;
13085;SDS011;6609;49.882;8.664;2023-10-13T12:27:07;10.23;;;3.97;;
13085;SDS011;6609;49.882;8.664;2023-10-13T12:29:45;7.67;;;3.40;;
13085;SDS011;6609;49.882;8.664;2023-10-13T12:32:12;10.17;;;4.13;;
13085;SDS011;6609;49.882;8.664;2023-10-13T12:34:39;7.27;;;3.80;;
13085;SDS011;6609;49.882;8.664;2023-10-13T12:37:22;8.20;;;3.77;;
13085;SDS011;6609;49.882;8.664;2023-10-13T12:40:17;7.87;;;3.93;;
13085;SDS011;6609;49.882;8.664;2023-10-13T12:43:02;9.10;;;3.90;;
13085;SDS011;6609;49.882;8.664;2023-10-13T12:45:47;8.47;;;3.70;;
13085;SDS011;6609;49.882;8.664;2023-10-13T12:48:33;7.20;;;3.93;;
13085;SDS011;6609;49.882;8.664;2023-10-13T12:51:19;7.57;;;3.73;;
13085;SDS011;6609;49.882;8.664;2023-10-13T12:53:49;8.87;;;3.47;;
13085;SDS011;6609;49.882;8.664;2023-10-13T12:56:18;9.70;;;4.10;;
13085;SDS011;6609;49.882;8.664;2023-10-13T12:58:51;9.53;;;3.93;;
13085;SDS011;6609;49.882;8.664;2023-10-13T13:01:19;8.40;;;3.87;;
13085;SDS011;6609;49.882;8.664;2023-10-13T13:03:46;6.50;;;3.80;;
13085;SDS011;6609;49.882;8.664;2023-10-13T13:06:18;8.20;;;3.93;;
13085;SDS011;6609;49.882;8.664;2023-10-13T13:08:50;6.50;;;3.77;;
13085;SDS011;6609;49.882;8.664;2023-10-13T13:11:18;6.83;;;4.50;;
13085;SDS011;6609;49.882;8.664;2023-10-13T13:13:45;7.33;;;4.43;;
13085;SDS011;6609;49.882;8.664;2023-10-13T13:16:12;6.53;;;3.90;;
13085;SDS011;6609;49.882;8.664;2023-10-13T13:18:39;9.17;;;4.57;;
13085;SDS011;6609;49.882;8.664;2023-10-13T13:21:08;9.17;;;3.60;;
13085;SDS011;6609;49.882;8.664;2023-10-13T13:23:37;8.43;;;3.90;;
13085;SDS011;6609;49.882;8.664;2023-10-13T13:26:05;7.07;;;3.93;;
13085;SDS011;6609;49.882;8.664;2023-10-13T13:28:44;7.33;;;4.07;;
13085;SDS011;6609;49.882;8.664;2023-10-13T13:31:15;8.33;;;3.33;;
13085;SDS011;6609;49.882;8.664;2023-10-13T13:33:42;6.83;;;3.80;;
13085;SDS011;6609;49.882;8.664;2023-10-13T13:36:09;9.63;;;4.20;;
13085;SDS011;6609;49.882;8.664;2023-10-13T13:38:38;9.23;;;3.97;;
13085;SDS011;6609;49.882;8.664;2023-10-13T13:41:11;11.10;;;4.17;;
13085;SDS011;6609;49.882;8.664;2023-10-13T13:43:41;11.07;;;3.87;;
13085;SDS011;6609;49.882;8.664;2023-10-13T13:46:20;8.80;;;3.90;;
13085;SDS011;6609;49.882;8.664;2023-10-13T13:48:50;11.30;;;4.23;;
13085;SDS011;6609;49.882;8.664;2023-10-13T13:51:22;6.57;;;4.27;;
13085;SDS011;6609;49.882;8.664;2023-10-13T13:53:53;6.03;;;3.63;;
13085;SDS011;6609;49.882;8.664;2023-10-13T13:56:20;11.03;;;4.10;;
13085;SDS011;6609;49.882;8.664;2023-10-13T13:58:52;10.27;;;3.77;;
13085;SDS011;6609;49.882;8.664;2023-10-13T14:01:19;8.33;;;4.03;;
13085;SDS011;6609;49.882;8.664;2023-10-13T14:03:48;8.93;;;3.93;;
13085;SDS011;6609;49.882;8.664;2023-10-13T14:06:16;12.00;;;4.27;;
13085;SDS011;6609;49.882;8.664;2023-10-13T14:08:46;9.97;;;3.97;;
13085;SDS011;6609;49.882;8.664;2023-10-13T14:11:16;7.30;;;3.90;;
13085;SDS011;6609;49.882;8.664;2023-10-13T14:14:04;10.40;;;4.37;;
13085;SDS011;6609;49.882;8.664;2023-10-13T14:16:38;11.63;;;3.90;;
13085;SDS011;6609;49.882;8.664;2023-10-13T14:19:09;7.17;;;3.57;;
13085;SDS011;6609;49.882;8.664;2023-10-13T14:21:36;11.57;;;3.73;;
13085;SDS011;6609;49.882;8.664;2023-10-13T14:24:03;10.10;;;4.23;;
13085;SDS011;6609;49.882;8.664;2023-10-13T14:26:39;6.10;;;3.57;;
13085;SDS011;6609;49.882;8.664;2023-10-13T14:29:09;6.03;;;3.33;;
13085;SDS011;6609;49.882;8.664;2023-10-13T14:31:39;8.03;;;3.90;;
13085;SDS011;6609;49.882;8.664;2023-10-13T14:34:06;9.93;;;3.73;;
13085;SDS011;6609;49.882;8.664;2023-10-13T14:36:33;7.87;;;4.50;;
13085;SDS011;6609;49.882;8.664;2023-10-13T14:39:00;7.63;;;3.83;;
13085;SDS011;6609;49.882;8.664;2023-10-13T14:41:28;6.33;;;3.43;;
13085;SDS011;6609;49.882;8.664;2023-10-13T14:43:56;5.43;;;3.50;;
13085;SDS011;6609;49.882;8.664;2023-10-13T14:46:31;8.33;;;3.90;;
13085;SDS011;6609;49.882;8.664;2023-10-13T14:49:00;10.30;;;3.33;;
13085;SDS011;6609;49.882;8.664;2023-10-13T14:51:28;9.70;;;3.77;;
13085;SDS011;6609;49.882;8.664;2023-10-13T14:53:56;12.03;;;4.33;;
13085;SDS011;6609;49.882;8.664;2023-10-13T14:56:25;7.83;;;3.73;;
13085;SDS011;6609;49.882;8.664;2023-10-13T14:58:52;9.03;;;3.93;;
13085;SDS011;6609;49.882;8.664;2023-10-13T15:01:21;10.80;;;4.00;;
13085;SDS011;6609;49.882;8.664;2023-10-13T15:03:53;8.07;;;3.43;;
13085;SDS011;6609;49.882;8.664;2023-10-13T15:06:21;7.77;;;3.67;;
13085;SDS011;6609;49.882;8.664;2023-10-13T15:08:51;7.23;;;3.17;;
13085;SDS011;6609;49.882;8.664;2023-10-13T15:11:19;11.47;;;4.07;;
13085;SDS011;6609;49.882;8.664;2023-10-13T15:13:51;9.10;;;3.70;;
13085;SDS011;6609;49.882;8.664;2023-10-13T15:16:19;8.10;;;4.30;;
13085;SDS011;6609;49.882;8.664;2023-10-13T15:18:48;13.60;;;4.00;;
13085;SDS011;6609;49.882;8.664;2023-10-13T15:21:20;11.97;;;3.70;;
13085;SDS011;6609;49.882;8.664;2023-10-13T15:23:47;8.63;;;3.70;;
13085;SDS011;6609;49.882;8.664;2023-10-13T15:26:16;12.83;;;3.67;;
13085;SDS011;6609;49.882;8.664;2023-10-13T15:28:45;13.03;;;3.97;;
13085;SDS011;6609;49.882;8.664;2023-10-13T15:31:15;10.53;;;4.20;;
13085;SDS011;6609;49.882;8.664;2023-10-13T15:34:03;8.03;;;3.30;;